Time;durP1;ratioP1;P1;durP2;ratioP2;P2;SDS_P1;SDS_P2;PMS_P1;PMS_P2;Temp;Humidity;BMP_temperature;BMP_pressure;BME280_temperature;BME280_humidity;BME280_pressure;Samples;Min_cycle;Max_cycle;Signal;HPM_P1;HPM_P2
2023/01/02 00:01:51;;;;;;;14.50;3.60;;;;;;;;;;5022510;28;20092;-76
2023/01/02 00:04:20;;;;;;;13.30;3.47;;;;;;;;;;5044185;28;20033;-75
2023/01/02 00:06:46;;;;;;;8.73;3.03;;;;;;;;;;5045032;28;20242;-75
2023/01/02 00:09:12;;;;;;;12.17;3.47;;;;;;;;;;5045006;28;20025;-76
2023/01/02 00:11:38;;;;;;;14.90;2.73;;;;;;;;;;5036051;28;20492;-76
2023/01/02 00:14:04;;;;;;;11.77;3.30;;;;;;;;;;5028961;28;20037;-74
2023/01/02 00:16:30;;;;;;;14.23;2.50;;;;;;;;;;5023329;28;20037;-75
2023/01/02 00:18:56;;;;;;;10.97;2.90;;;;;;;;;;5023194;28;20040;-75
2023/01/02 00:21:22;;;;;;;13.67;2.87;;;;;;;;;;5038859;28;20057;-76
2023/01/02 00:23:48;;;;;;;11.40;3.33;;;;;;;;;;5029227;28;20171;-75
2023/01/02 00:26:14;;;;;;;12.87;3.27;;;;;;;;;;5043054;28;20908;-76
2023/01/02 00:28:40;;;;;;;9.63;2.80;;;;;;;;;;5024519;28;20069;-76
2023/01/02 00:31:07;;;;;;;9.80;2.60;;;;;;;;;;5028441;28;20037;-76
2023/01/02 00:33:34;;;;;;;9.47;2.80;;;;;;;;;;5037555;28;20029;-74
2023/01/02 00:36:03;;;;;;;13.50;3.97;;;;;;;;;;5028442;28;20462;-75
2023/01/02 00:38:29;;;;;;;9.70;3.17;;;;;;;;;;5037409;28;20573;-75
2023/01/02 00:40:55;;;;;;;9.57;2.70;;;;;;;;;;5043703;28;20458;-75
2023/01/02 00:43:21;;;;;;;15.23;3.07;;;;;;;;;;5028287;28;20458;-75
2023/01/02 00:45:48;;;;;;;14.60;3.37;;;;;;;;;;5022604;28;20033;-75
2023/01/02 00:48:14;;;;;;;21.13;3.40;;;;;;;;;;5028532;28;20041;-76
2023/01/02 00:50:40;;;;;;;13.60;3.30;;;;;;;;;;5028328;28;20040;-76
2023/01/02 00:53:06;;;;;;;10.57;3.00;;;;;;;;;;5036232;28;20120;-74
2023/01/02 00:55:32;;;;;;;12.10;3.10;;;;;;;;;;5036561;28;20128;-76
2023/01/02 00:57:58;;;;;;;10.97;2.67;;;;;;;;;;5023778;28;20071;-76
2023/01/02 01:00:24;;;;;;;8.50;2.60;;;;;;;;;;5042853;28;20057;-76
2023/01/02 01:02:50;;;;;;;8.10;2.83;;;;;;;;;;5042723;28;20362;-75
2023/01/02 01:05:16;;;;;;;6.30;2.57;;;;;;;;;;5022767;28;20116;-75
2023/01/02 01:07:42;;;;;;;15.30;3.00;;;;;;;;;;5027783;28;20095;-74
2023/01/02 01:10:08;;;;;;;10.00;3.17;;;;;;;;;;5036891;28;20035;-74
2023/01/02 01:12:34;;;;;;;11.27;2.80;;;;;;;;;;5043619;28;20117;-75
2023/01/02 01:15:00;;;;;;;9.73;2.77;;;;;;;;;;5043548;28;20033;-76
2023/01/02 01:17:28;;;;;;;9.10;2.60;;;;;;;;;;5022893;28;20033;-75
2023/01/02 01:19:54;;;;;;;13.97;3.23;;;;;;;;;;5027218;28;20026;-76
2023/01/02 01:22:21;;;;;;;14.63;2.77;;;;;;;;;;5022834;28;20362;-75
2023/01/02 01:24:47;;;;;;;8.77;2.40;;;;;;;;;;5037685;28;20096;-75
2023/01/02 01:27:13;;;;;;;12.03;3.17;;;;;;;;;;5020053;28;20055;-74
2023/01/02 01:29:39;;;;;;;13.60;3.53;;;;;;;;;;5021825;28;20053;-75
2023/01/02 01:32:05;;;;;;;11.93;2.87;;;;;;;;;;5025152;28;20041;-76
2023/01/02 01:34:33;;;;;;;11.67;2.50;;;;;;;;;;5037504;28;20072;-75
2023/01/02 01:36:59;;;;;;;14.37;3.23;;;;;;;;;;5021049;28;20037;-74
2023/01/02 01:39:25;;;;;;;9.27;3.10;;;;;;;;;;5040777;28;20056;-75
2023/01/02 01:41:51;;;;;;;13.43;2.93;;;;;;;;;;5023363;28;20386;-76
2023/01/02 01:44:36;;;;;;;11.20;2.80;;;;;;;;;;5042408;28;20103;-74
2023/01/02 01:47:02;;;;;;;11.73;3.07;;;;;;;;;;5042956;28;20469;-75
2023/01/02 01:49:29;;;;;;;9.23;2.50;;;;;;;;;;5039203;28;21699;-75
2023/01/02 01:52:02;;;;;;;12.87;2.90;;;;;;;;;;5022545;28;20108;-75
2023/01/02 01:54:31;;;;;;;9.97;2.60;;;;;;;;;;5024980;28;20042;-75
2023/01/02 01:56:59;;;;;;;13.90;3.10;;;;;;;;;;5042728;28;20026;-75
2023/01/02 01:59:26;;;;;;;11.20;2.63;;;;;;;;;;5025523;28;20138;-74
2023/01/02 02:01:52;;;;;;;9.57;2.83;;;;;;;;;;5030737;28;20029;-75
2023/01/02 02:04:22;;;;;;;8.87;3.37;;;;;;;;;;5029012;28;20043;-76
2023/01/02 02:06:49;;;;;;;13.70;2.80;;;;;;;;;;5031031;28;20107;-75
2023/01/02 02:09:18;;;;;;;12.57;2.70;;;;;;;;;;5031029;28;20029;-75
2023/01/02 02:11:44;;;;;;;9.63;2.77;;;;;;;;;;5025689;28;20130;-75
2023/01/02 02:14:10;;;;;;;8.77;2.20;;;;;;;;;;5029918;28;20060;-75
2023/01/02 02:16:55;;;;;;;6.27;2.40;;;;;;;;;;5029940;28;20029;-75
2023/01/02 02:19:30;;;;;;;12.07;2.37;;;;;;;;;;5039049;28;20029;-75
2023/01/02 02:22:15;;;;;;;8.90;2.50;;;;;;;;;;5040086;28;20078;-74
2023/01/02 02:24:41;;;;;;;8.17;2.13;;;;;;;;;;5029630;28;20083;-76
2023/01/02 02:27:07;;;;;;;13.77;2.80;;;;;;;;;;5029762;28;20382;-76
2023/01/02 02:29:52;;;;;;;12.53;2.83;;;;;;;;;;5029557;28;20037;-76
2023/01/02 02:32:36;;;;;;;10.53;3.00;;;;;;;;;;5028934;28;20056;-75
2023/01/02 02:35:21;;;;;;;19.13;2.73;;;;;;;;;;5045116;28;20040;-76
2023/01/02 02:37:54;;;;;;;8.73;2.40;;;;;;;;;;5022501;28;20130;-76
2023/01/02 02:40:44;;;;;;;7.83;3.03;;;;;;;;;;5029346;28;20516;-76
2023/01/02 02:43:19;;;;;;;8.63;3.17;;;;;;;;;;5017588;28;20971;-75
2023/01/02 02:45:48;;;;;;;11.27;2.70;;;;;;;;;;5028938;28;20164;-74
2023/01/02 02:48:14;;;;;;;9.93;3.20;;;;;;;;;;5036977;28;20045;-74
2023/01/02 02:50:47;;;;;;;11.70;2.97;;;;;;;;;;5025089;28;20044;-75
2023/01/02 02:53:18;;;;;;;16.17;2.90;;;;;;;;;;5044592;28;20124;-75
2023/01/02 02:55:47;;;;;;;12.80;3.10;;;;;;;;;;5023628;28;20034;-75
2023/01/02 02:58:14;;;;;;;9.97;2.50;;;;;;;;;;5036149;28;20046;-75
2023/01/02 03:00:43;;;;;;;8.83;2.67;;;;;;;;;;5044253;28;20083;-75
2023/01/02 03:03:15;;;;;;;11.03;2.97;;;;;;;;;;5021282;28;20091;-74
2023/01/02 03:05:43;;;;;;;16.17;3.08;;;;;;;;;;5028461;28;20025;-74
2023/01/02 03:08:28;;;;;;;16.07;3.03;;;;;;;;;;5038558;28;20109;-75
2023/01/02 03:10:57;;;;;;;12.47;2.70;;;;;;;;;;5023322;28;20083;-75
2023/01/02 03:13:32;;;;;;;6.00;2.50;;;;;;;;;;5038655;28;20048;-76
2023/01/02 03:16:17;;;;;;;14.83;2.83;;;;;;;;;;5043089;28;20866;-75
2023/01/02 03:18:49;;;;;;;14.07;2.97;;;;;;;;;;5022624;28;20026;-75
2023/01/02 03:21:29;;;;;;;11.65;3.10;;;;;;;;;;5027002;28;20029;-75
2023/01/02 03:23:56;;;;;;;7.47;2.50;;;;;;;;;;5023716;28;20052;-76
2023/01/02 03:26:26;;;;;;;16.47;3.00;;;;;;;;;;5036735;28;20029;-76
2023/01/02 03:28:55;;;;;;;16.13;3.10;;;;;;;;;;5027847;28;20036;-76
2023/01/02 03:31:24;;;;;;;14.70;3.03;;;;;;;;;;5043431;28;20347;-75
2023/01/02 03:33:56;;;;;;;10.23;2.80;;;;;;;;;;5037493;28;20033;-74
2023/01/02 03:36:24;;;;;;;8.52;2.25;;;;;;;;;;5027971;28;20025;-75
2023/01/02 03:39:26;;;;;;;8.90;3.23;;;;;;;;;;5019280;28;20021;-75
2023/01/02 03:42:24;;;;;;;9.73;2.70;;;;;;;;;;5005760;28;20030;-76
2023/01/02 03:44:54;;;;;;;18.60;3.50;;;;;;;;;;5015849;28;20033;-76
2023/01/02 03:47:29;;;;;;;9.60;3.20;;;;;;;;;;5028723;28;20024;-76
2023/01/02 03:49:58;;;;;;;12.70;2.90;;;;;;;;;;5044933;28;20041;-74
2023/01/02 03:52:24;;;;;;;13.77;2.50;;;;;;;;;;5026449;28;20033;-74
2023/01/02 03:54:51;;;;;;;13.07;3.17;;;;;;;;;;5043120;28;20041;-74
2023/01/02 03:57:27;;;;;;;11.97;3.03;;;;;;;;;;5043363;28;20037;-75
2023/01/02 04:00:02;;;;;;;9.30;3.20;;;;;;;;;;5037497;28;20025;-75
2023/01/02 04:02:31;;;;;;;14.77;3.57;;;;;;;;;;5024100;28;20038;-75
2023/01/02 04:05:04;;;;;;;9.33;2.70;;;;;;;;;;5043236;28;20033;-76
2023/01/02 04:07:42;;;;;;;13.20;3.23;;;;;;;;;;5046346;28;20033;-76
2023/01/02 04:10:10;;;;;;;13.17;2.67;;;;;;;;;;5027897;28;20037;-74
2023/01/02 04:12:40;;;;;;;13.00;3.10;;;;;;;;;;5018587;28;20037;-75
2023/01/02 04:15:09;;;;;;;16.07;2.57;;;;;;;;;;5044976;28;20478;-75
2023/01/02 04:17:38;;;;;;;10.53;2.47;;;;;;;;;;5037473;28;20037;-75
2023/01/02 04:20:07;;;;;;;11.87;2.20;;;;;;;;;;5023329;28;20029;-76
2023/01/02 04:22:40;;;;;;;12.80;2.77;;;;;;;;;;5044475;28;20025;-75
2023/01/02 04:25:12;;;;;;;9.60;2.90;;;;;;;;;;5019543;28;20029;-76
2023/01/02 04:27:44;;;;;;;15.80;3.75;;;;;;;;;;5026968;28;20492;-76
2023/01/02 04:30:10;;;;;;;8.35;2.58;;;;;;;;;;5027206;28;20022;-75
2023/01/02 04:32:38;;;;;;;9.97;2.47;;;;;;;;;;5036603;28;20037;-74
2023/01/02 04:35:05;;;;;;;13.70;3.53;;;;;;;;;;5020720;28;20029;-74
2023/01/02 04:37:33;;;;;;;21.40;3.97;;;;;;;;;;5042147;28;20141;-74
2023/01/02 04:40:02;;;;;;;14.00;2.57;;;;;;;;;;5035340;28;20036;-75
2023/01/02 04:42:28;;;;;;;9.27;2.80;;;;;;;;;;5042017;28;20112;-74
2023/01/02 04:44:54;;;;;;;18.10;2.53;;;;;;;;;;5037301;28;20037;-74
2023/01/02 04:47:20;;;;;;;15.87;2.90;;;;;;;;;;5027786;28;20095;-76
2023/01/02 04:49:46;;;;;;;10.70;2.83;;;;;;;;;;5020555;28;20115;-76
2023/01/02 04:52:12;;;;;;;10.27;2.73;;;;;;;;;;5042001;28;20037;-75
2023/01/02 04:54:38;;;;;;;9.93;2.47;;;;;;;;;;5026949;28;20053;-75
2023/01/02 04:57:04;;;;;;;12.23;3.37;;;;;;;;;;5035065;28;20458;-74
2023/01/02 04:59:30;;;;;;;8.53;2.83;;;;;;;;;;5026489;28;20033;-75
2023/01/02 05:01:56;;;;;;;14.43;3.97;;;;;;;;;;5042427;28;20091;-74
2023/01/02 05:04:22;;;;;;;11.10;2.63;;;;;;;;;;5035468;28;20032;-76
2023/01/02 05:06:48;;;;;;;15.97;2.70;;;;;;;;;;5035510;28;20737;-75
2023/01/02 05:09:17;;;;;;;16.30;3.00;;;;;;;;;;5041945;28;20092;-76
2023/01/02 05:11:43;;;;;;;10.03;3.23;;;;;;;;;;5026678;28;20091;-75
2023/01/02 05:14:09;;;;;;;12.47;3.10;;;;;;;;;;5036259;28;20128;-75
2023/01/02 05:16:35;;;;;;;9.77;3.03;;;;;;;;;;5042305;28;20082;-74
2023/01/02 05:19:01;;;;;;;16.27;2.97;;;;;;;;;;5042716;28;20053;-75
2023/01/02 05:24:11;;;;;;;5.57;2.20;;;;;;;;;;5026669;28;20095;-76
2023/01/02 05:26:40;;;;;;;14.73;2.87;;;;;;;;;;5018074;28;20073;-75
2023/01/02 05:29:06;;;;;;;7.70;2.37;;;;;;;;;;5041543;28;20026;-75
2023/01/02 05:31:32;;;;;;;11.40;2.63;;;;;;;;;;5035516;28;20037;-74
2023/01/02 05:33:58;;;;;;;9.10;2.73;;;;;;;;;;5021598;28;20037;-75
2023/01/02 05:36:25;;;;;;;14.87;3.27;;;;;;;;;;5045802;28;20021;-75
2023/01/02 05:38:51;;;;;;;13.33;2.33;;;;;;;;;;5045409;28;20035;-75
2023/01/02 05:41:18;;;;;;;17.47;3.63;;;;;;;;;;5030604;28;20435;-75
2023/01/02 05:43:44;;;;;;;13.60;2.40;;;;;;;;;;5024795;28;20056;-75
2023/01/02 05:46:15;;;;;;;11.50;2.80;;;;;;;;;;5045084;28;20030;-76
2023/01/02 05:48:44;;;;;;;14.30;3.17;;;;;;;;;;5039277;28;21701;-75
2023/01/02 05:51:12;;;;;;;17.70;3.07;;;;;;;;;;5029492;28;20473;-75
2023/01/02 05:53:38;;;;;;;11.27;2.47;;;;;;;;;;5025930;28;20056;-76
2023/01/02 05:56:05;;;;;;;15.53;2.90;;;;;;;;;;5038505;28;20402;-76
2023/01/02 05:58:34;;;;;;;10.33;2.97;;;;;;;;;;5032067;28;20025;-75
2023/01/02 06:01:10;;;;;;;14.00;2.90;;;;;;;;;;5029081;28;20430;-74
2023/01/02 06:03:38;;;;;;;10.87;2.53;;;;;;;;;;5032891;28;20045;-76
2023/01/02 06:06:05;;;;;;;11.27;2.60;;;;;;;;;;5039497;28;20469;-75
2023/01/02 06:08:31;;;;;;;12.90;3.57;;;;;;;;;;5022536;28;20033;-74
2023/01/02 06:11:00;;;;;;;14.00;2.80;;;;;;;;;;5036847;28;20037;-75
2023/01/02 06:13:28;;;;;;;13.77;3.13;;;;;;;;;;5026307;28;20033;-74
2023/01/02 06:15:54;;;;;;;10.30;2.30;;;;;;;;;;5028941;28;20025;-75
2023/01/02 06:18:20;;;;;;;9.90;2.77;;;;;;;;;;5030962;28;20029;-76
2023/01/02 06:20:46;;;;;;;9.73;2.40;;;;;;;;;;5046228;28;20029;-76
2023/01/02 06:23:12;;;;;;;16.73;2.80;;;;;;;;;;5023748;28;20030;-75
2023/01/02 06:25:38;;;;;;;12.93;2.90;;;;;;;;;;5036961;28;20029;-75
2023/01/02 06:28:05;;;;;;;12.90;2.73;;;;;;;;;;5038173;28;20036;-75
2023/01/02 06:30:31;;;;;;;14.33;2.77;;;;;;;;;;5037672;28;20045;-75
2023/01/02 06:32:59;;;;;;;12.37;2.50;;;;;;;;;;5028254;28;20029;-74
2023/01/02 06:35:25;;;;;;;10.47;2.73;;;;;;;;;;5038417;28;20037;-75
2023/01/02 06:37:51;;;;;;;11.33;2.33;;;;;;;;;;5045777;28;20025;-76
2023/01/02 06:40:19;;;;;;;18.30;3.53;;;;;;;;;;5029042;28;20017;-74
2023/01/02 06:42:45;;;;;;;12.33;2.40;;;;;;;;;;5043321;28;20370;-75
2023/01/02 06:45:11;;;;;;;12.90;2.70;;;;;;;;;;5025548;28;20505;-75
2023/01/02 06:47:37;;;;;;;8.87;2.43;;;;;;;;;;5043649;28;20034;-75
2023/01/02 06:50:04;;;;;;;9.93;3.23;;;;;;;;;;5028567;28;20112;-76
2023/01/02 06:52:30;;;;;;;9.63;2.97;;;;;;;;;;5036430;28;20037;-75
2023/01/02 06:54:56;;;;;;;18.03;2.77;;;;;;;;;;5034649;28;20045;-75
2023/01/02 06:57:22;;;;;;;10.37;2.80;;;;;;;;;;5026736;28;20030;-75
2023/01/02 06:59:48;;;;;;;13.27;2.90;;;;;;;;;;5018244;28;20401;-76
2023/01/02 07:02:14;;;;;;;10.00;2.50;;;;;;;;;;5034612;28;20033;-75
2023/01/02 07:04:40;;;;;;;14.03;2.67;;;;;;;;;;5041415;28;20643;-75
2023/01/02 07:07:07;;;;;;;11.87;2.70;;;;;;;;;;5041260;28;20469;-74
2023/01/02 07:09:36;;;;;;;20.13;3.30;;;;;;;;;;5036374;28;20067;-74
2023/01/02 07:12:02;;;;;;;14.03;2.90;;;;;;;;;;5039753;28;20033;-76
2023/01/02 07:14:30;;;;;;;9.77;2.70;;;;;;;;;;5026463;28;20033;-74
2023/01/02 07:16:56;;;;;;;11.63;2.47;;;;;;;;;;5027857;28;20113;-74
2023/01/02 07:19:22;;;;;;;13.07;4.70;;;;;;;;;;5036159;28;20154;-75
2023/01/02 07:21:48;;;;;;;9.97;3.30;;;;;;;;;;5038978;28;20034;-76
2023/01/02 07:24:15;;;;;;;16.87;3.13;;;;;;;;;;5028439;28;20037;-76
2023/01/02 07:26:41;;;;;;;15.90;2.77;;;;;;;;;;5024940;28;20121;-77
2023/01/02 07:29:07;;;;;;;9.53;2.60;;;;;;;;;;5027992;28;20084;-76
2023/01/02 07:31:34;;;;;;;13.53;3.13;;;;;;;;;;5035622;28;20072;-77
2023/01/02 07:34:00;;;;;;;12.17;3.33;;;;;;;;;;5025529;28;20041;-77
2023/01/02 07:36:27;;;;;;;11.43;2.63;;;;;;;;;;5022082;28;20931;-77
2023/01/02 07:38:53;;;;;;;12.23;3.10;;;;;;;;;;5037614;28;20442;-75
2023/01/02 07:41:21;;;;;;;12.60;4.13;;;;;;;;;;5027943;28;20029;-75
2023/01/02 07:43:47;;;;;;;8.37;2.53;;;;;;;;;;5023302;28;20060;-76
2023/01/02 07:46:14;;;;;;;8.33;2.27;;;;;;;;;;5043304;28;20249;-76
2023/01/02 07:48:40;;;;;;;19.67;3.33;;;;;;;;;;5027937;28;20033;-77
2023/01/02 07:51:06;;;;;;;8.53;2.47;;;;;;;;;;5038697;28;20021;-77
2023/01/02 07:53:35;;;;;;;12.53;3.10;;;;;;;;;;5044171;28;20037;-75
2023/01/02 07:56:02;;;;;;;14.77;3.60;;;;;;;;;;5043117;28;20385;-77
2023/01/02 07:58:28;;;;;;;13.13;4.40;;;;;;;;;;5036607;28;21560;-77
2023/01/02 08:00:54;;;;;;;13.17;3.97;;;;;;;;;;5024320;28;20026;-76
2023/01/02 08:03:21;;;;;;;18.60;3.80;;;;;;;;;;5037553;28;20030;-76
2023/01/02 08:05:47;;;;;;;18.23;4.40;;;;;;;;;;5040217;28;20048;-77
2023/01/02 08:08:13;;;;;;;15.13;2.97;;;;;;;;;;5044395;28;20055;-77
2023/01/02 08:10:39;;;;;;;14.17;3.43;;;;;;;;;;5046396;28;20032;-76
2023/01/02 08:13:06;;;;;;;15.43;3.90;;;;;;;;;;5040234;28;20128;-77
2023/01/02 08:15:32;;;;;;;18.47;4.07;;;;;;;;;;5023901;28;21728;-76
2023/01/02 08:17:58;;;;;;;11.90;4.30;;;;;;;;;;5029742;28;20099;-77
2023/01/02 08:20:25;;;;;;;11.77;4.00;;;;;;;;;;5021773;28;20026;-75
2023/01/02 08:22:52;;;;;;;14.63;5.23;;;;;;;;;;5029415;28;20040;-78
2023/01/02 08:25:18;;;;;;;15.23;4.83;;;;;;;;;;5044908;28;20026;-76
2023/01/02 08:27:44;;;;;;;20.07;4.17;;;;;;;;;;5021186;28;20038;-76
2023/01/02 08:30:13;;;;;;;9.83;3.60;;;;;;;;;;5037573;28;20045;-76
2023/01/02 08:32:39;;;;;;;14.30;4.83;;;;;;;;;;5031865;28;20049;-76
2023/01/02 08:35:06;;;;;;;12.93;4.87;;;;;;;;;;5028731;28;20075;-75
2023/01/02 08:37:32;;;;;;;13.33;4.50;;;;;;;;;;5038806;28;20168;-76
2023/01/02 08:40:01;;;;;;;16.07;4.63;;;;;;;;;;5022371;28;20029;-76
2023/01/02 08:42:27;;;;;;;14.20;3.73;;;;;;;;;;5045286;28;20033;-77
2023/01/02 08:44:53;;;;;;;20.57;5.03;;;;;;;;;;5044715;28;20481;-77
2023/01/02 08:47:19;;;;;;;13.67;5.10;;;;;;;;;;5029258;28;20132;-77
2023/01/02 08:49:45;;;;;;;13.40;4.30;;;;;;;;;;5024779;28;20109;-76
2023/01/02 08:52:11;;;;;;;8.40;3.60;;;;;;;;;;5043424;28;20069;-77
2023/01/02 08:54:37;;;;;;;11.63;4.30;;;;;;;;;;5043002;28;20037;-77
2023/01/02 08:57:03;;;;;;;11.60;4.00;;;;;;;;;;5021955;28;20030;-77
2023/01/02 08:59:29;;;;;;;16.10;3.80;;;;;;;;;;5044513;28;20025;-76
2023/01/02 09:01:55;;;;;;;8.40;2.90;;;;;;;;;;5026780;28;20029;-77
2023/01/02 09:04:21;;;;;;;9.63;3.03;;;;;;;;;;5035992;28;20529;-77
2023/01/02 09:06:48;;;;;;;7.10;2.83;;;;;;;;;;5025221;28;20116;-74
2023/01/02 09:09:15;;;;;;;6.70;2.80;;;;;;;;;;5039484;28;20052;-76
2023/01/02 09:11:49;;;;;;;9.30;1.93;;;;;;;;;;5032064;28;20434;-75
2023/01/02 09:14:15;;;;;;;11.83;2.40;;;;;;;;;;5040248;28;20033;-76
2023/01/02 09:16:41;;;;;;;6.43;2.10;;;;;;;;;;5026806;28;20450;-75
2023/01/02 09:19:07;;;;;;;6.83;1.83;;;;;;;;;;5042106;28;20573;-76
2023/01/02 09:21:33;;;;;;;5.47;2.00;;;;;;;;;;5026718;28;20466;-76
2023/01/02 09:23:59;;;;;;;5.97;1.83;;;;;;;;;;5028210;28;20037;-76
2023/01/02 09:26:26;;;;;;;5.97;2.30;;;;;;;;;;5048524;28;20472;-77
2023/01/02 09:28:54;;;;;;;7.13;1.90;;;;;;;;;;5023364;28;20405;-75
2023/01/02 09:31:20;;;;;;;5.53;1.53;;;;;;;;;;5042045;28;20127;-76
2023/01/02 09:33:47;;;;;;;4.07;1.77;;;;;;;;;;5040960;28;20033;-77
2023/01/02 09:36:14;;;;;;;9.10;1.70;;;;;;;;;;5026411;28;20030;-75
2023/01/02 09:38:41;;;;;;;5.33;1.73;;;;;;;;;;5029089;28;20496;-76
2023/01/02 09:41:26;;;;;;;4.57;1.83;;;;;;;;;;5032150;28;20066;-75
2023/01/02 09:43:56;;;;;;;4.37;1.67;;;;;;;;;;5032164;28;20029;-76
2023/01/02 09:46:34;;;;;;;4.70;1.37;;;;;;;;;;5029036;28;20037;-77
2023/01/02 09:49:02;;;;;;;5.67;1.80;;;;;;;;;;5042447;28;20034;-77
2023/01/02 09:51:29;;;;;;;4.03;1.07;;;;;;;;;;5031969;28;20037;-75
2023/01/02 09:53:55;;;;;;;5.00;0.80;;;;;;;;;;5023793;28;20096;-76
2023/01/02 09:56:28;;;;;;;1.63;0.90;;;;;;;;;;5039993;28;20462;-77
2023/01/02 09:59:02;;;;;;;2.30;0.80;;;;;;;;;;5032220;28;20022;-76
2023/01/02 10:01:37;;;;;;;3.40;0.90;;;;;;;;;;5048462;28;20108;-76
2023/01/02 10:04:14;;;;;;;0.97;0.67;;;;;;;;;;5049077;28;20025;-76
2023/01/02 10:06:46;;;;;;;1.93;0.77;;;;;;;;;;5025638;28;20183;-77
2023/01/02 10:09:12;;;;;;;1.52;0.57;;;;;;;;;;5041769;28;20036;-76
2023/01/02 10:11:48;;;;;;;1.43;0.63;;;;;;;;;;5047838;28;20030;-76
2023/01/02 10:14:19;;;;;;;2.60;1.10;;;;;;;;;;5032843;28;20026;-76
2023/01/02 10:16:46;;;;;;;1.40;0.60;;;;;;;;;;5048600;28;20088;-76
2023/01/02 10:19:26;;;;;;;1.90;1.00;;;;;;;;;;5042111;28;20032;-76
2023/01/02 10:21:55;;;;;;;3.80;1.27;;;;;;;;;;5042145;28;20120;-76
2023/01/02 10:25:00;;;;;;;1.60;0.80;;;;;;;;;;5029403;28;20033;-77
2023/01/02 10:27:30;;;;;;;3.20;0.80;;;;;;;;;;5007629;28;20041;-76
2023/01/02 10:29:59;;;;;;;1.97;0.73;;;;;;;;;;5032651;28;20112;-77
2023/01/02 10:32:26;;;;;;;1.53;1.00;;;;;;;;;;5030341;28;20041;-76
2023/01/02 10:35:01;;;;;;;3.50;1.30;;;;;;;;;;5030313;28;20037;-77
2023/01/02 10:37:28;;;;;;;2.90;1.17;;;;;;;;;;5029784;28;20021;-77
2023/01/02 10:39:54;;;;;;;3.63;1.30;;;;;;;;;;5032005;28;20045;-76
2023/01/02 10:42:21;;;;;;;1.97;1.50;;;;;;;;;;5005172;28;20048;-75
2023/01/02 10:44:47;;;;;;;4.53;1.87;;;;;;;;;;5032308;28;20083;-76
2023/01/02 10:47:18;;;;;;;2.53;1.40;;;;;;;;;;5030644;28;20442;-77
2023/01/02 10:49:46;;;;;;;2.43;1.93;;;;;;;;;;5027921;28;20060;-76
2023/01/02 10:52:20;;;;;;;2.87;1.70;;;;;;;;;;5029731;28;20049;-76
2023/01/02 10:54:52;;;;;;;2.60;1.60;;;;;;;;;;5029842;28;20029;-77
2023/01/02 10:57:23;;;;;;;2.97;1.87;;;;;;;;;;5029955;28;20042;-76
2023/01/02 10:59:54;;;;;;;2.87;1.97;;;;;;;;;;5043004;28;20039;-76
2023/01/02 11:02:28;;;;;;;3.60;2.03;;;;;;;;;;5032078;28;20044;-76
2023/01/02 11:04:58;;;;;;;4.03;2.23;;;;;;;;;;5042157;28;20056;-77
2023/01/02 11:07:28;;;;;;;4.17;2.60;;;;;;;;;;5025599;28;20029;-76
2023/01/02 11:09:55;;;;;;;6.50;2.97;;;;;;;;;;5024556;28;20533;-76
2023/01/02 11:12:23;;;;;;;3.00;2.27;;;;;;;;;;5046882;28;20080;-77
2023/01/02 11:14:49;;;;;;;4.93;3.03;;;;;;;;;;5028351;28;20039;-75
2023/01/02 11:17:18;;;;;;;3.70;2.70;;;;;;;;;;5025724;28;20044;-76
2023/01/02 11:19:46;;;;;;;3.93;2.87;;;;;;;;;;5026627;28;20029;-77
2023/01/02 11:22:13;;;;;;;3.93;2.40;;;;;;;;;;5041346;28;21230;-76
2023/01/02 11:24:49;;;;;;;3.40;2.40;;;;;;;;;;5042312;28;20034;-77
2023/01/02 11:27:15;;;;;;;3.60;2.90;;;;;;;;;;5030861;28;20071;-76
2023/01/02 11:29:45;;;;;;;5.20;3.37;;;;;;;;;;5025399;28;20029;-76
2023/01/02 11:32:21;;;;;;;4.93;3.30;;;;;;;;;;5031378;28;20076;-76
2023/01/02 11:34:55;;;;;;;5.13;3.33;;;;;;;;;;5030254;28;20029;-76
2023/01/02 11:37:21;;;;;;;5.23;3.00;;;;;;;;;;5024648;28;20037;-76
2023/01/02 11:40:06;;;;;;;6.93;3.77;;;;;;;;;;5040142;28;20037;-75
2023/01/02 11:45:30;;;;;;;6.13;3.30;;;;;;;;;;5031128;28;20485;-77
2023/01/02 11:47:59;;;;;;;4.60;3.27;;;;;;;;;;5025690;28;20033;-77
2023/01/02 11:50:34;;;;;;;6.10;3.30;;;;;;;;;;5025274;28;20045;-77
2023/01/02 11:53:08;;;;;;;9.70;3.20;;;;;;;;;;5042443;28;20061;-77
2023/01/02 11:55:40;;;;;;;5.87;3.47;;;;;;;;;;5023435;28;20033;-77
2023/01/02 11:58:22;;;;;;;6.32;3.38;;;;;;;;;;5025522;28;20026;-75
2023/01/02 12:00:51;;;;;;;5.30;3.83;;;;;;;;;;5045861;28;20362;-77
2023/01/02 12:03:18;;;;;;;7.83;4.73;;;;;;;;;;5039195;28;20037;-77
2023/01/02 12:05:56;;;;;;;7.10;4.13;;;;;;;;;;5046064;28;20045;-77
2023/01/02 12:08:22;;;;;;;5.53;4.00;;;;;;;;;;5043222;28;20029;-77
2023/01/02 12:10:50;;;;;;;5.77;4.00;;;;;;;;;;5045492;28;20029;-76
2023/01/02 12:13:35;;;;;;;6.45;4.00;;;;;;;;;;5026239;28;20433;-77
2023/01/02 12:16:08;;;;;;;8.23;4.47;;;;;;;;;;5030810;28;20070;-77
2023/01/02 12:18:34;;;;;;;6.93;4.43;;;;;;;;;;5022678;28;20083;-77
2023/01/02 12:21:06;;;;;;;7.40;4.67;;;;;;;;;;5040881;28;20037;-77
2023/01/02 12:23:32;;;;;;;5.60;3.83;;;;;;;;;;5024073;28;21644;-77
2023/01/02 12:26:04;;;;;;;6.03;3.37;;;;;;;;;;5024842;28;20044;-75
2023/01/02 12:28:49;;;;;;;6.43;3.58;;;;;;;;;;5029335;28;20033;-77
2023/01/02 12:31:43;;;;;;;3.77;2.40;;;;;;;;;;5046263;28;20087;-77
2023/01/02 12:34:25;;;;;;;6.83;3.10;;;;;;;;;;5045924;28;20038;-76
2023/01/02 12:36:51;;;;;;;4.85;3.08;;;;;;;;;;5027331;28;20044;-77
2023/01/02 12:39:33;;;;;;;7.10;3.60;;;;;;;;;;5046443;28;20025;-77
2023/01/02 12:42:17;;;;;;;6.43;3.37;;;;;;;;;;5047038;28;20044;-76
2023/01/02 12:44:49;;;;;;;4.70;3.10;;;;;;;;;;5026440;28;20033;-76
2023/01/02 12:47:22;;;;;;;3.43;2.70;;;;;;;;;;5029693;28;20029;-76
2023/01/02 12:49:48;;;;;;;;;;;;;;;;;;5026019;28;20601;-75
2023/01/02 12:52:28;;;;;;;3.03;2.43;;;;;;;;;;5030403;28;19955;-77
2023/01/02 12:54:57;;;;;;;2.57;1.70;;;;;;;;;;5025934;28;20366;-76
2023/01/02 12:57:35;;;;;;;5.83;2.67;;;;;;;;;;5047402;28;20520;-76
2023/01/02 13:00:19;;;;;;;2.30;1.47;;;;;;;;;;5043125;28;20044;-77
2023/01/02 13:03:04;;;;;;;2.23;1.50;;;;;;;;;;5045499;28;20033;-78
2023/01/02 13:05:43;;;;;;;2.60;1.10;;;;;;;;;;5039365;28;20475;-76
2023/01/02 13:08:44;;;;;;;2.10;0.90;;;;;;;;;;5045822;28;20083;-75
2023/01/02 13:11:10;;;;;;;1.57;0.90;;;;;;;;;;5010823;28;20029;-76
2023/01/02 13:13:37;;;;;;;1.83;1.23;;;;;;;;;;5021042;28;20160;-75
2023/01/02 13:16:09;;;;;;;1.67;1.20;;;;;;;;;;5040455;28;20116;-77
2023/01/02 13:18:51;;;;;;;2.50;1.38;;;;;;;;;;5046103;28;20034;-76
2023/01/02 13:21:20;;;;;;;1.47;1.20;;;;;;;;;;5024050;28;20057;-75
2023/01/02 13:23:46;;;;;;;2.00;1.23;;;;;;;;;;5045870;28;20124;-76
2023/01/02 13:26:17;;;;;;;1.90;1.10;;;;;;;;;;5023486;28;20068;-75
2023/01/02 13:28:52;;;;;;;3.23;1.10;;;;;;;;;;5045226;28;20026;-77
2023/01/02 13:31:18;;;;;;;2.83;0.90;;;;;;;;;;5041185;28;20026;-77
2023/01/02 13:33:45;;;;;;;3.10;0.90;;;;;;;;;;5045824;28;20726;-77
2023/01/02 13:36:41;;;;;;;2.00;0.80;;;;;;;;;;5026764;28;20065;-75
2023/01/02 13:39:18;;;;;;;2.63;1.00;;;;;;;;;;5020007;28;20034;-77
2023/01/02 13:44:57;;;;;;;3.40;1.70;;;;;;;;;;5024134;28;20029;-76
2023/01/02 13:47:29;;;;;;;1.00;0.80;;;;;;;;;;5046031;28;20108;-78
2023/01/02 13:49:57;;;;;;;3.17;1.23;;;;;;;;;;5037388;28;20476;-77
2023/01/02 13:52:23;;;;;;;3.33;1.60;;;;;;;;;;5047734;28;20091;-75
2023/01/02 13:55:08;;;;;;;1.87;0.77;;;;;;;;;;5049624;28;20037;-76
2023/01/02 13:57:34;;;;;;;1.83;0.90;;;;;;;;;;5050621;28;20936;-76
2023/01/02 14:00:02;;;;;;;3.03;1.00;;;;;;;;;;5033427;28;20040;-76
2023/01/02 14:02:28;;;;;;;2.30;1.00;;;;;;;;;;5049868;28;20034;-76
2023/01/02 14:04:54;;;;;;;1.43;0.87;;;;;;;;;;5026865;28;20083;-77
2023/01/02 14:07:28;;;;;;;3.23;1.17;;;;;;;;;;5031288;28;20029;-76
2023/01/02 14:10:09;;;;;;;1.63;0.83;;;;;;;;;;5028222;28;20033;-76
2023/01/02 14:12:44;;;;;;;3.70;1.20;;;;;;;;;;5048107;28;20120;-77
2023/01/02 14:15:16;;;;;;;1.73;0.70;;;;;;;;;;5041781;28;20095;-77
2023/01/02 14:17:48;;;;;;;1.67;1.02;;;;;;;;;;5042578;28;20026;-75
2023/01/02 14:20:17;;;;;;;3.40;1.58;;;;;;;;;;5043934;28;20033;-78
2023/01/02 14:22:54;;;;;;;4.13;1.30;;;;;;;;;;5048093;28;20025;-77
2023/01/02 14:25:21;;;;;;;1.33;0.93;;;;;;;;;;5026688;28;20029;-76
2023/01/02 14:27:52;;;;;;;1.87;1.07;;;;;;;;;;5023816;28;20079;-76
2023/01/02 14:30:39;;;;;;;1.45;1.00;;;;;;;;;;5032938;28;20040;-77
2023/01/02 14:33:06;;;;;;;4.63;1.50;;;;;;;;;;5047755;28;20041;-76
2023/01/02 14:35:34;;;;;;;4.63;1.43;;;;;;;;;;5048656;28;20025;-76
2023/01/02 14:38:10;;;;;;;1.97;1.30;;;;;;;;;;5047694;28;20025;-77
2023/01/02 14:40:40;;;;;;;4.77;2.20;;;;;;;;;;5032757;28;20083;-77
2023/01/02 14:45:53;;;;;;;2.53;1.70;;;;;;;;;;5032954;28;20064;-77
2023/01/02 14:48:21;;;;;;;2.47;1.60;;;;;;;;;;5032933;28;20044;-77
2023/01/02 14:50:48;;;;;;;2.30;1.47;;;;;;;;;;5049111;28;20044;-76
2023/01/02 14:53:22;;;;;;;2.90;1.70;;;;;;;;;;5032093;28;20025;-76
2023/01/02 14:55:52;;;;;;;5.60;1.90;;;;;;;;;;5029335;28;20044;-77
2023/01/02 14:58:29;;;;;;;2.67;1.50;;;;;;;;;;5047778;28;20136;-77
2023/01/02 15:00:56;;;;;;;5.40;1.50;;;;;;;;;;5044358;28;20461;-77
2023/01/02 15:03:22;;;;;;;1.80;1.63;;;;;;;;;;5029615;28;20041;-77
2023/01/02 15:05:59;;;;;;;5.93;2.83;;;;;;;;;;5050295;28;20033;-77